Time;durP1;ratioP1;P1;durP2;ratioP2;P2;SDS_P1;SDS_P2;PMS_P1;PMS_P2;Temp;Humidity;BMP_temperature;BMP_pressure;BME280_temperature;BME280_humidity;BME280_pressure;Samples;Min_cycle;Max_cycle;Signal;HPM_P1;HPM_P2
2021/12/09 00:00:12;;;;;;;11.43;2.45;;;4.20;99.90;;;;;;5070458;28;20537;-73
2021/12/09 00:02:38;;;;;;;9.45;2.67;;;4.10;99.90;;;;;;5070500;28;20025;-73
2021/12/09 00:05:05;;;;;;;13.95;3.30;;;4.10;99.90;;;;;;5071243;28;20025;-73
2021/12/09 00:07:31;;;;;;;9.23;2.70;;;4.10;99.90;;;;;;5070293;28;20036;-75
2021/12/09 00:09:57;;;;;;;10.85;3.22;;;4.00;99.90;;;;;;5071239;28;20035;-74
2021/12/09 00:12:24;;;;;;;17.13;3.17;;;4.00;99.90;;;;;;5070910;28;20529;-73
2021/12/09 00:14:50;;;;;;;15.90;3.78;;;4.00;99.90;;;;;;5069044;28;20047;-74
2021/12/09 00:17:16;;;;;;;13.30;3.83;;;4.00;99.90;;;;;;5072962;28;20458;-73
2021/12/09 00:19:41;;;;;;;13.43;3.08;;;4.00;99.90;;;;;;5071009;28;20048;-73
2021/12/09 00:22:11;;;;;;;9.23;2.95;;;4.00;99.90;;;;;;5070876;28;20028;-73
2021/12/09 00:24:37;;;;;;;13.48;3.45;;;4.00;99.90;;;;;;5070144;28;20036;-73
2021/12/09 00:27:03;;;;;;;15.35;3.47;;;3.90;99.90;;;;;;5071282;28;20063;-74
2021/12/09 00:29:29;;;;;;;12.60;2.92;;;3.90;99.90;;;;;;5074373;28;20104;-73
2021/12/09 00:31:55;;;;;;;10.20;3.00;;;3.80;99.90;;;;;;5074631;28;20103;-72
2021/12/09 00:34:31;;;;;;;10.25;3.20;;;3.80;99.90;;;;;;5074887;28;20099;-71
2021/12/09 00:37:33;;;;;;;13.50;3.28;;;3.80;99.90;;;;;;5075009;28;20098;-72
2021/12/09 00:39:51;;;;;;;12.52;3.10;;;3.80;99.90;;;;;;5073674;28;20029;-72
2021/12/09 00:42:18;;;;;;;7.15;2.50;;;3.80;99.90;;;;;;5074631;28;20029;-74
2021/12/09 00:44:44;;;;;;;8.82;2.67;;;3.90;99.90;;;;;;5073806;28;20021;-73
2021/12/09 00:47:10;;;;;;;13.23;3.38;;;3.80;99.90;;;;;;5075115;28;20479;-73
2021/12/09 00:49:35;;;;;;;15.52;2.83;;;3.80;99.90;;;;;;5074383;28;20071;-73
2021/12/09 00:52:02;;;;;;;11.52;2.88;;;3.80;99.90;;;;;;5075293;28;20025;-73
2021/12/09 00:54:28;;;;;;;12.85;3.53;;;3.80;99.90;;;;;;5074017;28;20028;-72
2021/12/09 00:56:53;;;;;;;14.25;3.25;;;3.80;99.90;;;;;;5074300;28;20056;-73
2021/12/09 00:59:20;;;;;;;13.65;3.08;;;3.80;99.90;;;;;;5074800;28;20544;-72
2021/12/09 01:01:46;;;;;;;9.98;2.75;;;3.70;99.90;;;;;;5074016;28;20081;-73
2021/12/09 01:04:11;;;;;;;11.75;2.78;;;3.80;99.90;;;;;;5074813;28;20028;-72
2021/12/09 01:06:37;;;;;;;8.90;2.67;;;3.80;99.90;;;;;;5073886;28;20444;-73
2021/12/09 01:09:05;;;;;;;13.57;3.15;;;3.70;99.90;;;;;;5075189;28;20033;-73
2021/12/09 01:11:31;;;;;;;11.57;2.78;;;3.70;99.90;;;;;;5073254;28;20099;-74
2021/12/09 01:13:57;;;;;;;10.75;2.90;;;3.70;99.90;;;;;;5074414;28;20029;-72
2021/12/09 01:16:23;;;;;;;9.02;2.83;;;3.70;99.90;;;;;;5074527;28;20044;-72
2021/12/09 01:18:49;;;;;;;16.85;3.33;;;3.70;99.90;;;;;;5073959;28;20032;-73
2021/12/09 01:21:15;;;;;;;11.57;3.22;;;3.70;99.90;;;;;;5073821;28;20024;-72
2021/12/09 01:23:41;;;;;;;10.80;2.72;;;3.60;99.90;;;;;;5073670;28;20027;-73
2021/12/09 01:26:08;;;;;;;8.55;2.40;;;3.70;99.90;;;;;;5074724;28;20348;-72
2021/12/09 01:29:00;;;;;;;12.48;2.47;;;3.60;99.90;;;;;;5073951;28;20024;-75
2021/12/09 01:31:25;;;;;;;10.27;2.25;;;3.70;99.90;;;;;;5074163;28;20119;-73
2021/12/09 01:33:53;;;;;;;13.75;2.67;;;3.60;99.90;;;;;;5073437;28;20604;-73
2021/12/09 01:36:20;;;;;;;10.50;2.67;;;3.60;99.90;;;;;;5074361;28;20021;-72
2021/12/09 01:38:46;;;;;;;10.55;2.13;;;3.60;99.90;;;;;;5072912;28;20108;-73
2021/12/09 01:41:12;;;;;;;11.73;2.13;;;3.60;99.90;;;;;;5072308;28;20116;-72
2021/12/09 01:43:38;;;;;;;12.75;2.67;;;3.60;99.90;;;;;;5072369;28;20435;-74
2021/12/09 01:46:13;;;;;;;8.50;2.10;;;3.60;99.90;;;;;;5053599;28;20079;-72
2021/12/09 01:48:40;;;;;;;10.40;2.15;;;3.70;99.90;;;;;;5054252;28;20082;-72
2021/12/09 01:51:06;;;;;;;11.90;2.17;;;3.60;99.90;;;;;;5053949;28;20036;-72
2021/12/09 01:53:32;;;;;;;8.32;2.25;;;3.70;99.90;;;;;;5069257;28;20021;-73
2021/12/09 01:56:00;;;;;;;13.07;2.10;;;3.70;99.90;;;;;;5053297;28;20116;-72
2021/12/09 01:58:26;;;;;;;15.77;2.90;;;3.60;99.90;;;;;;5069261;28;20040;-72
2021/12/09 02:00:53;;;;;;;11.45;2.53;;;3.60;99.90;;;;;;5053295;28;20735;-72
2021/12/09 02:03:19;;;;;;;13.50;2.45;;;3.60;99.90;;;;;;5053580;28;20037;-72
2021/12/09 02:05:45;;;;;;;9.52;2.30;;;3.60;99.90;;;;;;5051619;28;20032;-72
2021/12/09 02:08:13;;;;;;;13.27;2.40;;;3.60;99.90;;;;;;5058548;28;20025;-72
2021/12/09 02:10:41;;;;;;;9.90;2.58;;;3.60;99.90;;;;;;5052852;28;20036;-73
2021/12/09 02:13:07;;;;;;;8.85;2.45;;;3.60;99.90;;;;;;5053649;28;20025;-72
2021/12/09 02:15:34;;;;;;;10.68;3.17;;;3.60;99.90;;;;;;5053571;28;20475;-72
2021/12/09 02:18:04;;;;;;;12.93;2.85;;;3.60;99.90;;;;;;5053149;28;20037;-73
2021/12/09 02:20:34;;;;;;;12.88;2.95;;;3.60;99.90;;;;;;5068928;28;20025;-72
2021/12/09 02:23:00;;;;;;;9.10;2.40;;;3.50;99.90;;;;;;5052979;28;20024;-72
2021/12/09 02:25:26;;;;;;;10.10;2.17;;;3.50;99.90;;;;;;5053635;28;20116;-73
2021/12/09 02:27:52;;;;;;;13.38;2.55;;;3.50;99.90;;;;;;5052710;28;20108;-72
2021/12/09 02:30:18;;;;;;;9.38;2.10;;;3.50;99.90;;;;;;5053284;28;20052;-73
2021/12/09 02:32:45;;;;;;;9.45;2.05;;;3.50;99.90;;;;;;5052470;28;20081;-73
2021/12/09 02:35:11;;;;;;;10.75;1.90;;;3.50;99.90;;;;;;5051825;28;20029;-73
2021/12/09 02:37:37;;;;;;;7.05;2.10;;;3.50;99.90;;;;;;5052824;28;20033;-75
2021/12/09 02:40:06;;;;;;;6.63;1.98;;;3.50;99.90;;;;;;5052919;28;20357;-74
2021/12/09 02:42:34;;;;;;;8.20;2.20;;;3.40;99.90;;;;;;5053182;28;20475;-73
2021/12/09 02:45:00;;;;;;;6.35;2.03;;;3.50;99.90;;;;;;5061595;28;20597;-74
2021/12/09 02:47:26;;;;;;;8.10;1.75;;;3.50;99.90;;;;;;5072930;28;20024;-73
2021/12/09 02:49:52;;;;;;;7.85;1.90;;;3.50;99.90;;;;;;5071866;28;20387;-74
2021/12/09 02:52:19;;;;;;;13.40;2.08;;;3.50;99.90;;;;;;5072595;28;20067;-74
2021/12/09 02:54:45;;;;;;;10.02;2.35;;;3.50;99.90;;;;;;5072006;28;20060;-74
2021/12/09 02:57:12;;;;;;;11.02;2.00;;;3.50;99.90;;;;;;5072485;28;20403;-71
2021/12/09 02:59:38;;;;;;;10.88;2.42;;;3.60;99.90;;;;;;5072206;28;20044;-73
2021/12/09 03:02:05;;;;;;;6.45;1.60;;;3.70;99.90;;;;;;5072101;28;20028;-72
2021/12/09 03:04:49;;;;;;;13.00;1.95;;;3.70;99.90;;;;;;5072691;28;20108;-73
2021/12/09 03:07:30;;;;;;;9.07;2.00;;;3.80;99.90;;;;;;5072749;28;20040;-72
2021/12/09 03:10:04;;;;;;;6.63;1.70;;;3.80;99.90;;;;;;5070619;28;20432;-72
2021/12/09 03:12:33;;;;;;;12.73;2.40;;;3.80;99.90;;;;;;5070903;28;20021;-72
2021/12/09 03:15:01;;;;;;;7.55;2.25;;;3.90;99.90;;;;;;5071567;28;20161;-72
2021/12/09 03:17:27;;;;;;;9.80;2.05;;;3.90;99.90;;;;;;5072379;28;20036;-71
2021/12/09 03:19:53;;;;;;;8.57;1.80;;;3.90;99.90;;;;;;5071159;28;20059;-72
2021/12/09 03:22:20;;;;;;;9.88;1.98;;;3.90;99.90;;;;;;5071371;28;20104;-71
2021/12/09 03:24:46;;;;;;;13.10;1.92;;;3.90;99.90;;;;;;5071290;28;20074;-72
2021/12/09 03:27:12;;;;;;;11.48;2.08;;;3.90;99.90;;;;;;5076290;28;20066;-72
2021/12/09 03:29:38;;;;;;;8.80;2.10;;;3.90;99.90;;;;;;5072151;28;20032;-73
2021/12/09 03:32:08;;;;;;;10.25;2.33;;;3.90;99.90;;;;;;5071924;28;20032;-73
2021/12/09 03:34:35;;;;;;;8.82;2.17;;;3.90;99.90;;;;;;5072379;28;20036;-73
2021/12/09 03:37:05;;;;;;;20.08;2.58;;;3.90;99.90;;;;;;5071418;28;20079;-73
2021/12/09 03:39:34;;;;;;;12.60;1.92;;;3.90;99.90;;;;;;5072194;28;20024;-73
2021/12/09 03:42:00;;;;;;;6.63;1.65;;;3.80;99.90;;;;;;5071036;28;20207;-72
2021/12/09 03:44:28;;;;;;;10.93;1.85;;;3.90;99.90;;;;;;5071915;28;20032;-72
2021/12/09 03:46:58;;;;;;;12.48;2.42;;;3.80;99.90;;;;;;5071427;28;20044;-73
2021/12/09 03:49:24;;;;;;;11.00;1.80;;;3.80;99.90;;;;;;5072643;28;20031;-74
2021/12/09 03:51:52;;;;;;;7.07;1.73;;;3.80;99.90;;;;;;5070940;28;20029;-74
2021/12/09 03:54:18;;;;;;;8.73;1.75;;;3.90;99.90;;;;;;5071957;28;20028;-74
2021/12/09 03:56:44;;;;;;;9.70;2.30;;;3.90;99.90;;;;;;5069623;28;20115;-75
2021/12/09 03:59:11;;;;;;;11.88;2.00;;;3.90;99.90;;;;;;5071857;28;20103;-73
2021/12/09 04:01:39;;;;;;;11.93;1.88;;;3.90;99.90;;;;;;5071972;28;20049;-73
2021/12/09 04:04:06;;;;;;;12.93;1.92;;;4.00;99.90;;;;;;5070463;28;20035;-73
2021/12/09 04:06:33;;;;;;;10.77;1.55;;;4.00;99.90;;;;;;5072065;28;20104;-73
2021/12/09 04:09:00;;;;;;;14.13;2.55;;;4.00;99.90;;;;;;5071408;28;20028;-73
2021/12/09 04:11:27;;;;;;;7.18;1.80;;;4.00;99.90;;;;;;5070308;28;20024;-73
2021/12/09 04:13:54;;;;;;;10.80;1.70;;;4.00;99.90;;;;;;5070783;28;20467;-74
2021/12/09 04:16:20;;;;;;;7.00;2.00;;;4.00;99.90;;;;;;5071616;28;20032;-73
2021/12/09 04:18:46;;;;;;;11.77;1.92;;;4.10;99.90;;;;;;5071167;28;20060;-76
2021/12/09 04:21:12;;;;;;;10.60;1.95;;;4.10;99.90;;;;;;5071679;28;20079;-73
2021/12/09 04:23:39;;;;;;;10.20;1.70;;;4.10;99.90;;;;;;5071598;28;20039;-74
2021/12/09 04:26:06;;;;;;;8.13;1.55;;;4.00;99.90;;;;;;5070880;28;20101;-74
2021/12/09 04:28:33;;;;;;;7.70;1.60;;;4.10;99.90;;;;;;5071627;28;20085;-72
2021/12/09 04:30:59;;;;;;;7.78;1.50;;;4.10;99.90;;;;;;5070900;28;20029;-74
2021/12/09 04:33:26;;;;;;;9.60;2.00;;;4.10;99.90;;;;;;5071471;28;20032;-72
2021/12/09 04:35:51;;;;;;;9.65;1.80;;;4.20;99.90;;;;;;5070939;28;20025;-71
2021/12/09 04:38:17;;;;;;;11.45;1.50;;;4.20;99.90;;;;;;5071282;28;20090;-71
2021/12/09 04:40:43;;;;;;;12.70;1.65;;;4.20;99.90;;;;;;5071556;28;20040;-71
2021/12/09 04:43:09;;;;;;;9.43;1.70;;;4.20;99.90;;;;;;5070939;28;20020;-72
2021/12/09 04:45:38;;;;;;;10.80;1.80;;;4.30;99.90;;;;;;5074580;28;20043;-72
2021/12/09 04:48:06;;;;;;;11.27;2.08;;;4.30;99.90;;;;;;5070550;28;20054;-72
2021/12/09 04:50:33;;;;;;;7.78;1.45;;;4.40;99.90;;;;;;5071437;28;20036;-72
2021/12/09 04:52:59;;;;;;;8.70;2.00;;;4.40;99.90;;;;;;5070491;28;20017;-72
2021/12/09 04:55:24;;;;;;;9.68;1.83;;;4.40;99.90;;;;;;5071166;28;20383;-72
2021/12/09 04:57:50;;;;;;;8.30;1.67;;;4.50;99.90;;;;;;5070662;28;20033;-73
2021/12/09 05:00:20;;;;;;;9.98;2.00;;;4.50;99.90;;;;;;5071283;28;20048;-72
2021/12/09 05:03:10;;;;;;;8.35;1.58;;;4.50;99.90;;;;;;5069954;28;20031;-74
2021/12/09 05:05:44;;;;;;;13.40;1.75;;;4.50;99.90;;;;;;5071475;28;20021;-72
2021/12/09 05:08:15;;;;;;;9.85;1.73;;;4.50;99.90;;;;;;5070505;28;20040;-72
2021/12/09 05:10:54;;;;;;;10.73;2.00;;;4.50;99.90;;;;;;5071304;28;20033;-72
2021/12/09 05:13:22;;;;;;;5.53;1.70;;;4.50;99.90;;;;;;5071336;28;20493;-72
2021/12/09 05:15:48;;;;;;;9.82;2.10;;;4.50;99.90;;;;;;5073903;28;20499;-74
2021/12/09 05:18:15;;;;;;;10.20;2.28;;;4.50;99.90;;;;;;5074072;28;20037;-72
2021/12/09 05:20:42;;;;;;;7.50;1.38;;;4.50;99.90;;;;;;5073638;28;20031;-72
2021/12/09 05:23:08;;;;;;;8.50;1.98;;;4.50;99.90;;;;;;5073643;28;20024;-73
2021/12/09 05:25:34;;;;;;;8.80;1.73;;;4.50;99.90;;;;;;5074930;28;20104;-72
2021/12/09 05:28:00;;;;;;;9.52;1.67;;;4.50;99.90;;;;;;5073953;28;20025;-73
2021/12/09 05:30:38;;;;;;;12.57;1.75;;;4.50;99.90;;;;;;5074387;28;20031;-72
2021/12/09 05:33:05;;;;;;;8.05;1.95;;;4.50;99.90;;;;;;5073880;28;20089;-72
2021/12/09 05:35:32;;;;;;;10.07;1.73;;;4.50;99.90;;;;;;5074497;28;20024;-72
2021/12/09 05:37:58;;;;;;;11.60;2.50;;;4.40;99.90;;;;;;5073329;28;20063;-73
2021/12/09 05:40:23;;;;;;;10.98;1.67;;;4.40;99.90;;;;;;5070747;28;20052;-72
2021/12/09 05:42:49;;;;;;;12.10;2.03;;;4.40;99.90;;;;;;5074149;28;20036;-74
2021/12/09 05:45:15;;;;;;;10.30;1.88;;;4.40;99.90;;;;;;5073610;28;20056;-72
2021/12/09 05:47:41;;;;;;;12.93;2.45;;;4.40;99.90;;;;;;5074145;28;20029;-72
2021/12/09 05:50:08;;;;;;;16.38;2.15;;;4.40;99.90;;;;;;5073241;28;20021;-72
2021/12/09 05:52:34;;;;;;;13.35;2.53;;;4.40;99.90;;;;;;5074312;28;20074;-72
2021/12/09 05:55:00;;;;;;;7.95;1.77;;;4.40;99.90;;;;;;5073089;28;20378;-72
2021/12/09 05:57:26;;;;;;;14.57;2.25;;;4.40;99.90;;;;;;5073755;28;20434;-72
2021/12/09 05:59:54;;;;;;;14.98;2.55;;;4.40;99.90;;;;;;5072906;28;20076;-73
2021/12/09 06:02:20;;;;;;;14.10;2.33;;;4.30;99.90;;;;;;5074572;28;20471;-72
2021/12/09 06:04:46;;;;;;;6.90;1.85;;;4.40;99.90;;;;;;5078550;28;20028;-72
2021/12/09 06:07:13;;;;;;;16.95;2.60;;;4.30;99.90;;;;;;5073074;28;20036;-72
2021/12/09 06:09:39;;;;;;;12.88;2.72;;;4.30;99.90;;;;;;5073649;28;20025;-72
2021/12/09 06:12:06;;;;;;;16.88;2.97;;;4.30;99.90;;;;;;5072887;28;20017;-72
2021/12/09 06:14:32;;;;;;;15.27;3.30;;;4.30;99.90;;;;;;5073727;28;20036;-72
2021/12/09 06:16:58;;;;;;;12.50;2.42;;;4.30;99.90;;;;;;5072756;28;20403;-72
2021/12/09 06:19:23;;;;;;;11.40;1.73;;;4.30;99.90;;;;;;5073452;28;20024;-72
2021/12/09 06:21:49;;;;;;;8.07;2.17;;;4.30;99.90;;;;;;5073621;28;20360;-72
2021/12/09 06:24:18;;;;;;;11.75;2.22;;;4.30;99.90;;;;;;5072773;28;20024;-72
2021/12/09 06:26:45;;;;;;;15.93;2.33;;;4.30;99.90;;;;;;5071613;28;20031;-72
2021/12/09 06:29:11;;;;;;;9.43;2.35;;;4.30;99.90;;;;;;5072343;28;20036;-72
2021/12/09 06:31:37;;;;;;;12.68;1.98;;;4.30;99.90;;;;;;5073561;28;20119;-72
2021/12/09 06:34:02;;;;;;;15.23;2.28;;;4.30;99.90;;;;;;5072230;28;20027;-72
2021/12/09 06:36:28;;;;;;;14.38;2.53;;;4.40;99.90;;;;;;5073039;28;20028;-72
2021/12/09 06:38:54;;;;;;;10.98;2.13;;;4.40;99.90;;;;;;5072729;28;20089;-74
2021/12/09 06:41:21;;;;;;;14.48;2.40;;;4.40;99.90;;;;;;5073166;28;20093;-72
2021/12/09 06:43:48;;;;;;;10.88;2.55;;;4.40;99.90;;;;;;5073013;28;20462;-72
2021/12/09 06:46:14;;;;;;;8.85;1.75;;;4.40;99.90;;;;;;5072204;28;20094;-72
2021/12/09 06:48:40;;;;;;;19.70;2.50;;;4.50;99.90;;;;;;5072773;28;20028;-72
2021/12/09 06:51:06;;;;;;;14.77;2.25;;;4.50;99.90;;;;;;5072136;28;20025;-73
2021/12/09 06:53:33;;;;;;;13.43;2.53;;;4.60;99.90;;;;;;5072948;28;20025;-73
2021/12/09 06:55:59;;;;;;;12.05;1.90;;;4.60;99.90;;;;;;5071977;28;20024;-74
2021/12/09 06:58:26;;;;;;;10.73;2.22;;;4.70;99.90;;;;;;5072514;28;20403;-72
2021/12/09 07:00:54;;;;;;;12.27;3.25;;;4.60;99.90;;;;;;5071057;28;20398;-72
2021/12/09 07:03:21;;;;;;;14.20;3.42;;;4.60;99.90;;;;;;5071971;28;20430;-73
2021/12/09 07:05:51;;;;;;;10.65;2.65;;;4.70;99.90;;;;;;5072354;28;20081;-73
2021/12/09 07:08:18;;;;;;;11.90;2.65;;;4.70;99.90;;;;;;5071514;28;20020;-73
2021/12/09 07:10:44;;;;;;;16.27;2.65;;;4.70;99.90;;;;;;5072412;28;20028;-73
2021/12/09 07:13:10;;;;;;;10.23;2.58;;;4.70;99.90;;;;;;5070390;28;20071;-73
2021/12/09 07:15:36;;;;;;;9.40;2.28;;;4.80;99.90;;;;;;5072377;28;20414;-73
2021/12/09 07:18:02;;;;;;;9.80;2.35;;;4.70;99.90;;;;;;5071619;28;20158;-73
2021/12/09 07:20:29;;;;;;;12.60;2.53;;;4.70;99.90;;;;;;5072638;28;20078;-73
2021/12/09 07:22:56;;;;;;;12.93;2.63;;;4.80;99.90;;;;;;5073059;28;20108;-74
2021/12/09 07:25:23;;;;;;;9.90;2.60;;;4.70;99.90;;;;;;5071763;28;20158;-72
2021/12/09 07:27:49;;;;;;;11.38;2.83;;;4.80;99.90;;;;;;5072265;28;20032;-72
2021/12/09 07:30:18;;;;;;;13.48;2.55;;;4.70;99.90;;;;;;5071487;28;20451;-74
2021/12/09 07:32:44;;;;;;;14.85;2.85;;;4.70;99.90;;;;;;5072025;28;20113;-72
2021/12/09 07:35:12;;;;;;;10.23;2.53;;;4.70;99.90;;;;;;5070812;28;20050;-73
2021/12/09 07:37:39;;;;;;;11.55;2.85;;;4.70;99.90;;;;;;5071012;28;20064;-73
2021/12/09 07:40:07;;;;;;;13.85;3.20;;;4.70;99.90;;;;;;5071120;28;20020;-72
2021/12/09 07:42:34;;;;;;;14.15;4.25;;;4.70;99.90;;;;;;5072228;28;20024;-72
2021/12/09 07:45:00;;;;;;;15.75;2.92;;;4.70;99.90;;;;;;5071289;28;20052;-73
2021/12/09 07:47:25;;;;;;;11.10;3.13;;;4.70;99.90;;;;;;5071906;28;20048;-73
2021/12/09 07:49:51;;;;;;;10.75;3.17;;;4.70;99.90;;;;;;5071139;28;20070;-72
2021/12/09 07:52:17;;;;;;;8.85;2.45;;;4.70;99.90;;;;;;5072968;28;20640;-72
2021/12/09 07:54:43;;;;;;;11.02;2.25;;;4.70;99.90;;;;;;5070356;28;20467;-72
2021/12/09 07:57:08;;;;;;;11.63;2.17;;;4.80;99.90;;;;;;5071066;28;20459;-73
2021/12/09 07:59:34;;;;;;;15.57;3.10;;;4.70;99.90;;;;;;5071750;28;20027;-72
2021/12/09 08:02:00;;;;;;;11.52;2.63;;;4.80;99.90;;;;;;5070875;28;20495;-74
2021/12/09 08:04:26;;;;;;;14.98;2.78;;;4.80;99.90;;;;;;5071334;28;20021;-72
2021/12/09 08:06:52;;;;;;;10.00;2.70;;;4.90;99.90;;;;;;5071879;28;20384;-73
2021/12/09 08:09:18;;;;;;;11.77;2.55;;;4.90;99.90;;;;;;5071097;28;20043;-73
2021/12/09 08:11:44;;;;;;;7.50;2.67;;;4.90;99.90;;;;;;5071336;28;20052;-72
2021/12/09 08:14:12;;;;;;;22.27;3.00;;;4.90;99.90;;;;;;5070946;28;20028;-72
2021/12/09 08:16:39;;;;;;;16.02;3.50;;;5.00;99.90;;;;;;5071603;28;20058;-72
2021/12/09 08:19:13;;;;;;;14.05;2.67;;;5.00;99.90;;;;;;5070705;28;20021;-73
2021/12/09 08:21:39;;;;;;;7.70;2.28;;;5.00;99.90;;;;;;5071275;28;20104;-72
2021/12/09 08:24:06;;;;;;;10.15;2.85;;;5.10;99.90;;;;;;5069839;28;20036;-74
2021/12/09 08:26:32;;;;;;;12.70;2.53;;;5.10;99.90;;;;;;5071751;28;20032;-72
2021/12/09 08:28:58;;;;;;;12.38;2.53;;;5.10;99.90;;;;;;5071591;28;20063;-72
2021/12/09 08:31:27;;;;;;;9.60;2.63;;;5.10;99.90;;;;;;5069524;28;20029;-72
2021/12/09 08:33:53;;;;;;;15.95;2.80;;;5.10;99.90;;;;;;5071375;28;20036;-72
2021/12/09 08:36:19;;;;;;;9.48;2.40;;;5.10;99.90;;;;;;5070937;28;20032;-72
2021/12/09 08:38:45;;;;;;;12.18;2.45;;;5.10;99.90;;;;;;5071222;28;20486;-72
2021/12/09 08:41:14;;;;;;;8.05;2.30;;;5.10;99.90;;;;;;5070229;28;20028;-73
2021/12/09 08:43:40;;;;;;;11.18;3.15;;;5.20;99.90;;;;;;5071593;28;20059;-72
2021/12/09 08:46:06;;;;;;;10.10;2.45;;;5.10;99.90;;;;;;5070335;28;20021;-74
2021/12/09 08:48:32;;;;;;;14.88;3.75;;;5.20;99.90;;;;;;5071886;28;20040;-73
2021/12/09 08:50:58;;;;;;;8.82;2.53;;;5.20;99.90;;;;;;5075107;28;20064;-73
2021/12/09 08:53:25;;;;;;;12.32;2.13;;;5.20;99.90;;;;;;5074428;28;20094;-72
2021/12/09 08:55:51;;;;;;;13.00;2.75;;;5.20;99.90;;;;;;5075204;28;20025;-73
2021/12/09 08:58:17;;;;;;;14.82;2.63;;;5.30;99.90;;;;;;5073845;28;20033;-73
2021/12/09 09:00:44;;;;;;;9.20;2.00;;;5.30;99.90;;;;;;5074021;28;20167;-73
2021/12/09 09:03:11;;;;;;;8.07;2.03;;;5.20;99.90;;;;;;5074353;28;20078;-73
2021/12/09 09:05:38;;;;;;;13.93;2.90;;;5.20;99.90;;;;;;5073592;28;20028;-73
2021/12/09 09:08:07;;;;;;;6.63;1.67;;;5.30;99.90;;;;;;5074230;28;20124;-75
2021/12/09 09:10:36;;;;;;;17.45;2.67;;;5.30;99.90;;;;;;5075938;28;20024;-73
2021/12/09 09:13:02;;;;;;;12.07;2.10;;;5.40;99.90;;;;;;5074526;28;20028;-73
2021/12/09 09:15:31;;;;;;;8.60;2.25;;;5.40;99.90;;;;;;5072794;28;20032;-73
2021/12/09 09:17:57;;;;;;;8.27;2.47;;;5.50;99.90;;;;;;5074342;28;20036;-73
2021/12/09 09:20:27;;;;;;;10.93;2.20;;;5.50;99.90;;;;;;5073311;28;20078;-73
2021/12/09 09:22:53;;;;;;;14.25;1.83;;;5.50;99.90;;;;;;5073441;28;20028;-73
2021/12/09 09:25:28;;;;;;;5.85;1.60;;;5.50;99.90;;;;;;5073560;28;20117;-73
2021/12/09 09:27:54;;;;;;;7.93;2.10;;;5.50;99.90;;;;;;5074639;28;20382;-73
2021/12/09 09:30:20;;;;;;;14.38;2.47;;;5.60;99.90;;;;;;5055685;28;20423;-73
2021/12/09 09:32:48;;;;;;;11.10;2.20;;;5.60;99.90;;;;;;5074508;28;20086;-74
2021/12/09 09:35:15;;;;;;;10.93;2.38;;;5.60;99.90;;;;;;5073592;28;20029;-74
2021/12/09 09:37:41;;;;;;;15.57;2.45;;;5.70;99.90;;;;;;5074267;28;20379;-73
2021/12/09 09:40:10;;;;;;;10.77;2.20;;;5.70;99.90;;;;;;5073831;28;20024;-75
2021/12/09 09:45:12;;;;;;;9.57;1.95;;;5.80;99.90;;;;;;5073048;28;20032;-75
2021/12/09 09:47:38;;;;;;;12.55;3.58;;;5.90;99.90;;;;;;5074141;28;20040;-73
2021/12/09 09:50:11;;;;;;;12.30;2.45;;;5.90;99.90;;;;;;5073925;28;20036;-73
2021/12/09 09:52:37;;;;;;;14.50;3.17;;;6.00;99.90;;;;;;5074054;28;20104;-73
2021/12/09 09:55:08;;;;;;;9.95;2.00;;;6.00;99.90;;;;;;5074051;28;20036;-73
2021/12/09 09:57:34;;;;;;;6.90;2.38;;;6.10;99.90;;;;;;5073488;28;20040;-73
2021/12/09 10:00:00;;;;;;;8.63;1.90;;;6.10;99.90;;;;;;5072903;28;20024;-73
2021/12/09 10:02:26;;;;;;;5.40;1.67;;;6.20;99.90;;;;;;5072408;28;20076;-73
2021/12/09 10:05:01;;;;;;;6.95;1.65;;;6.30;99.90;;;;;;5073978;28;20066;-73
2021/12/09 10:07:28;;;;;;;8.40;2.05;;;6.30;99.90;;;;;;5071855;28;20498;-73
2021/12/09 10:09:54;;;;;;;5.05;1.45;;;6.30;99.90;;;;;;5073764;28;20016;-73
2021/12/09 10:12:20;;;;;;;5.32;1.58;;;6.40;99.90;;;;;;5071581;28;20052;-74
2021/12/09 10:14:54;;;;;;;12.95;2.33;;;6.40;99.90;;;;;;5073580;28;20371;-74
2021/12/09 10:17:27;;;;;;;8.60;1.58;;;6.50;99.90;;;;;;5072765;28;20089;-74
2021/12/09 10:19:58;;;;;;;8.48;1.75;;;6.60;99.90;;;;;;5091686;28;20035;-73
2021/12/09 10:22:29;;;;;;;5.97;1.60;;;6.60;99.90;;;;;;5092540;28;20047;-73
2021/12/09 10:24:56;;;;;;;3.90;0.80;;;6.60;99.90;;;;;;5092945;28;20080;-73
2021/12/09 10:27:33;;;;;;;6.00;1.80;;;6.80;99.90;;;;;;5097487;28;20457;-73
2021/12/09 10:30:22;;;;;;;6.35;1.30;;;6.90;99.90;;;;;;5093606;28;20024;-73
2021/12/09 10:32:50;;;;;;;7.30;1.50;;;6.90;99.90;;;;;;5093595;28;20028;-72
2021/12/09 10:35:17;;;;;;;9.05;2.20;;;7.00;99.90;;;;;;5092789;28;20367;-73
2021/12/09 10:37:44;;;;;;;3.30;1.13;;;7.00;99.90;;;;;;5092951;28;20039;-72
2021/12/09 10:40:15;;;;;;;6.45;1.40;;;7.10;99.90;;;;;;5093103;28;20054;-74
2021/12/09 10:42:44;;;;;;;7.68;1.85;;;7.10;99.90;;;;;;5093212;28;20030;-72
2021/12/09 10:45:15;;;;;;;3.95;1.50;;;7.10;99.90;;;;;;5093192;28;20082;-74
2021/12/09 10:47:50;;;;;;;5.10;1.58;;;7.10;99.90;;;;;;5093102;28;20024;-72
2021/12/09 10:50:43;;;;;;;5.57;1.40;;;7.20;99.90;;;;;;5092713;28;20482;-72
2021/12/09 10:55:47;;;;;;;4.00;1.27;;;7.30;99.90;;;;;;5093318;28;20039;-72
2021/12/09 10:58:16;;;;;;;8.80;2.03;;;7.30;99.90;;;;;;5092440;28;20032;-74
2021/12/09 11:00:41;;;;;;;3.85;1.27;;;7.40;99.90;;;;;;5092762;28;20048;-72
2021/12/09 11:03:26;;;;;;;3.67;1.20;;;7.40;99.90;;;;;;5092718;28;20470;-72
2021/12/09 11:06:05;;;;;;;1.95;0.75;;;7.50;99.90;;;;;;5091502;28;20024;-72
2021/12/09 11:08:47;;;;;;;3.72;0.80;;;7.60;99.90;;;;;;5091612;28;20032;-72
2021/12/09 11:11:17;;;;;;;1.33;0.80;;;7.60;99.90;;;;;;5092233;28;20028;-74
2021/12/09 11:14:00;;;;;;;2.63;1.05;;;7.60;99.90;;;;;;5092752;28;20038;-72
2021/12/09 11:16:28;;;;;;;0.82;0.47;;;7.70;99.90;;;;;;5091736;28;20020;-72
2021/12/09 11:19:05;;;;;;;3.30;1.13;;;7.80;99.90;;;;;;5092427;28;20032;-72
2021/12/09 11:21:34;;;;;;;0.35;0.35;;;7.80;99.90;;;;;;5091511;28;20481;-72
2021/12/09 11:24:03;;;;;;;1.85;0.90;;;7.90;99.90;;;;;;5091757;28;20609;-72
2021/12/09 11:26:46;;;;;;;1.00;0.50;;;8.00;99.90;;;;;;5091238;28;20024;-72
2021/12/09 11:29:12;;;;;;;0.38;0.30;;;8.00;99.90;;;;;;5091056;28;20030;-73
2021/12/09 11:32:08;;;;;;;2.47;0.68;;;8.10;99.90;;;;;;5089516;28;20028;-72
2021/12/09 11:34:38;;;;;;;2.05;0.43;;;8.10;99.90;;;;;;5090921;28;20031;-73
2021/12/09 11:37:22;;;;;;;0.77;0.40;;;8.10;99.90;;;;;;5091164;28;20386;-72
2021/12/09 11:39:50;;;;;;;0.75;0.55;;;8.20;99.90;;;;;;5091044;28;20535;-72
2021/12/09 11:42:22;;;;;;;0.20;0.20;;;8.30;99.90;;;;;;5092954;28;20020;-73
2021/12/09 11:44:48;;;;;;;0.30;0.30;;;8.40;99.90;;;;;;5093941;28;20054;-72
2021/12/09 11:47:15;;;;;;;1.50;0.65;;;8.40;99.90;;;;;;5092281;28;20082;-72
2021/12/09 11:49:43;;;;;;;0.60;0.60;;;8.50;99.90;;;;;;5085144;28;20029;-72
2021/12/09 11:52:11;;;;;;;0.85;0.40;;;8.50;99.90;;;;;;5071606;28;20029;-72
2021/12/09 11:54:38;;;;;;;0.73;0.50;;;8.60;99.90;;;;;;5070757;28;20238;-72
2021/12/09 11:57:26;;;;;;;0.40;0.40;;;8.60;99.90;;;;;;5071517;28;20083;-72
2021/12/09 12:12:44;;;;;;;0.45;0.45;;;9.20;99.90;;;;;;5071400;28;20035;-72
2021/12/09 12:15:28;;;;;;;1.63;0.65;;;9.30;99.90;;;;;;5071104;28;20043;-72
2021/12/09 12:21:04;;;;;;;1.20;0.43;;;9.30;99.90;;;;;;5071196;28;20078;-72
2021/12/09 12:27:20;;;;;;;0.80;0.80;;;9.30;99.90;;;;;;5075123;28;20029;-73
2021/12/09 12:37:45;;;;;;;1.65;0.82;;;9.50;99.90;;;;;;5055902;28;20048;-72
2021/12/09 12:40:13;;;;;;;1.08;0.77;;;9.50;99.90;;;;;;5054982;28;20480;-72
2021/12/09 12:43:02;;;;;;;1.60;0.95;;;9.50;99.90;;;;;;5054447;28;20171;-72
2021/12/09 12:51:25;;;;;;;2.08;1.50;;;9.50;99.90;;;;;;5055187;28;20029;-72
2021/12/09 12:53:55;;;;;;;1.50;1.10;;;9.50;99.90;;;;;;5053802;28;20033;-72
2021/12/09 12:56:31;;;;;;;6.22;1.38;;;9.50;99.90;;;;;;5054939;28;20057;-74
2021/12/09 12:59:14;;;;;;;3.05;1.40;;;9.50;99.90;;;;;;5055306;28;20033;-72
2021/12/09 13:01:49;;;;;;;;;;;9.50;99.90;;;;;;5057055;28;20087;-72
2021/12/09 13:07:36;;;;;;;4.75;1.30;;;9.40;99.90;;;;;;5054344;28;20033;-74
2021/12/09 13:10:45;;;;;;;3.25;1.38;;;9.40;99.90;;;;;;5053430;28;20025;-72
2021/12/09 13:21:32;;;;;;;5.45;1.50;;;9.50;99.90;;;;;;5053956;28;20048;-74
2021/12/09 13:27:33;;;;;;;4.97;1.73;;;9.60;99.90;;;;;;5054108;28;20099;-72
2021/12/09 13:35:36;;;;;;;4.22;1.55;;;9.70;99.90;;;;;;5052451;28;20098;-75
2021/12/09 13:38:38;;;;;;;4.20;1.52;;;9.70;99.90;;;;;;5053947;28;20059;-73
2021/12/09 13:46:53;;;;;;;4.05;1.42;;;9.70;99.90;;;;;;5054183;28;20032;-74
2021/12/09 13:49:33;;;;;;;2.85;1.50;;;9.70;99.90;;;;;;5053207;28;20033;-74
2021/12/09 13:55:00;;;;;;;1.92;1.50;;;9.70;99.90;;;;;;5053524;28;20113;-73
2021/12/09 13:57:51;;;;;;;4.53;1.67;;;9.60;99.90;;;;;;5052884;28;20033;-75
2021/12/09 14:00:25;;;;;;;6.47;1.83;;;9.60;99.90;;;;;;5052951;28;20064;-74
2021/12/09 14:03:09;;;;;;;3.53;1.58;;;9.60;99.90;;;;;;5053064;28;20029;-73
2021/12/09 14:05:51;;;;;;;6.15;1.52;;;9.60;99.90;;;;;;5052247;28;20036;-72
2021/12/09 14:08:28;;;;;;;3.63;1.90;;;9.60;99.90;;;;;;5052967;28;20025;-72